createdAt,value
2017-11-11T00:00:12.397Z,1005.34
2017-11-11T00:01:12.383Z,1005.37
2017-11-11T00:02:12.363Z,1005.33
2017-11-11T00:03:12.342Z,1005.30
2017-11-11T00:04:12.321Z,1005.30
2017-11-11T00:05:12.301Z,1005.36
2017-11-11T00:06:12.282Z,1005.33
2017-11-11T00:07:12.260Z,1005.39
2017-11-11T00:08:12.239Z,1005.44
2017-11-11T00:09:12.218Z,1005.41
2017-11-11T00:10:12.201Z,1005.40
2017-11-11T00:11:12.180Z,1005.41
2017-11-11T00:12:12.165Z,1005.39
2017-11-11T00:13:12.141Z,1005.41
2017-11-11T00:14:12.125Z,1005.43
2017-11-11T00:15:12.099Z,1005.40
2017-11-11T00:16:12.081Z,1005.42
2017-11-11T00:17:12.062Z,1005.37
2017-11-11T00:18:12.049Z,1005.39
2017-11-11T00:19:12.022Z,1005.36
2017-11-11T00:20:12.001Z,1005.36
2017-11-11T00:21:11.983Z,1005.43
2017-11-11T00:22:11.966Z,1005.42
2017-11-11T00:23:11.942Z,1005.40
2017-11-11T00:24:11.921Z,1005.42
2017-11-11T00:25:11.902Z,1005.40
2017-11-11T00:26:11.879Z,1005.41
2017-11-11T00:27:11.861Z,1005.40
2017-11-11T00:28:11.842Z,1005.41
2017-11-11T00:29:11.820Z,1005.38
2017-11-11T00:30:11.805Z,1005.40
2017-11-11T00:31:11.778Z,1005.42
2017-11-11T00:32:11.765Z,1005.46
2017-11-11T00:33:11.740Z,1005.40
2017-11-11T00:34:11.739Z,1005.42
2017-11-11T00:35:11.705Z,1005.41
2017-11-11T00:36:11.679Z,1005.45
2017-11-11T00:37:11.667Z,1005.42
2017-11-11T00:38:11.638Z,1005.42
2017-11-11T00:39:11.620Z,1005.43
2017-11-11T00:40:11.596Z,1005.38
2017-11-11T00:41:11.582Z,1005.44
2017-11-11T00:42:11.560Z,1005.45
2017-11-11T00:43:11.540Z,1005.45
2017-11-11T00:44:11.517Z,1005.39
2017-11-11T00:45:11.496Z,1005.43
2017-11-11T00:46:11.477Z,1005.42
2017-11-11T00:47:11.458Z,1005.38
2017-11-11T00:48:11.437Z,1005.41
2017-11-11T00:49:11.428Z,1005.42
2017-11-11T00:50:11.400Z,1005.40
2017-11-11T00:51:11.378Z,1005.39
2017-11-11T00:52:11.357Z,1005.38
2017-11-11T00:53:11.335Z,1005.31
2017-11-11T00:54:11.315Z,1005.37
2017-11-11T00:55:11.297Z,1005.35
2017-11-11T00:56:11.294Z,1005.39
2017-11-11T00:57:11.256Z,1005.43
2017-11-11T00:58:11.238Z,1005.37
2017-11-11T00:59:11.220Z,1005.40
2017-11-11T01:00:11.208Z,1005.35
2017-11-11T01:01:11.174Z,1005.35
2017-11-11T01:02:11.154Z,1005.37
2017-11-11T01:03:11.135Z,1005.34
2017-11-11T01:04:11.114Z,1005.31
2017-11-11T01:05:11.094Z,1005.25
2017-11-11T01:06:11.073Z,1005.31
2017-11-11T01:07:11.053Z,1005.35
2017-11-11T01:08:11.032Z,1005.35
2017-11-11T01:09:11.013Z,1005.36
2017-11-11T01:10:10.993Z,1005.32
2017-11-11T01:11:10.973Z,1005.32
2017-11-11T01:12:10.951Z,1005.24
2017-11-11T01:13:10.932Z,1005.21
2017-11-11T01:14:10.931Z,1005.09
2017-11-11T01:15:10.897Z,1005.10
2017-11-11T01:16:10.872Z,1005.11
2017-11-11T01:17:10.855Z,1005.13
2017-11-11T01:18:10.833Z,1005.17
2017-11-11T01:19:10.812Z,1005.19
2017-11-11T01:20:10.791Z,1005.13
2017-11-11T01:21:10.778Z,1005.13
2017-11-11T01:22:10.752Z,1005.07
2017-11-11T01:23:10.732Z,1005.03
2017-11-11T01:24:10.710Z,1005.08
2017-11-11T01:25:10.697Z,1005.10
2017-11-11T01:26:10.672Z,1005.07
2017-11-11T01:27:10.653Z,1005.02
2017-11-11T01:28:10.630Z,1005.06
2017-11-11T01:29:10.611Z,1005.08
2017-11-11T01:30:10.589Z,1005.10
2017-11-11T01:31:10.570Z,1005.09
2017-11-11T01:32:10.547Z,1005.09
2017-11-11T01:33:10.529Z,1005.05
2017-11-11T01:34:10.509Z,1005.00
2017-11-11T01:35:10.493Z,1005.03
2017-11-11T01:36:10.467Z,1005.04
2017-11-11T01:37:10.448Z,1005.04
2017-11-11T01:38:10.430Z,1005.00
2017-11-11T01:39:10.408Z,1004.95
2017-11-11T01:40:10.386Z,1004.98
2017-11-11T01:41:10.367Z,1004.94
2017-11-11T01:42:10.347Z,1004.92
2017-11-11T01:43:10.349Z,1004.94
2017-11-11T01:44:10.311Z,1004.93
2017-11-11T01:45:10.286Z,1004.90
2017-11-11T01:46:10.265Z,1004.83
2017-11-11T01:47:10.242Z,1004.82
2017-11-11T01:48:10.227Z,1004.82
2017-11-11T01:49:10.204Z,1004.86
2017-11-11T01:50:10.184Z,1004.81
2017-11-11T01:51:10.163Z,1004.81
2017-11-11T01:52:10.144Z,1004.76
2017-11-11T01:53:10.122Z,1004.77
2017-11-11T01:54:10.106Z,1004.73
2017-11-11T01:55:10.150Z,1004.72
2017-11-11T01:56:10.060Z,1004.69
2017-11-11T01:57:10.041Z,1004.71
2017-11-11T01:58:10.025Z,1004.65
2017-11-11T01:59:10.000Z,1004.65
2017-11-11T02:00:09.983Z,1004.67
2017-11-11T02:01:09.963Z,1004.59
2017-11-11T02:02:09.938Z,1004.55
2017-11-11T02:03:09.919Z,1004.55
2017-11-11T02:04:09.899Z,1004.58
2017-11-11T02:05:09.878Z,1004.59
2017-11-11T02:06:09.857Z,1004.56
2017-11-11T02:07:09.842Z,1004.56
2017-11-11T02:08:09.818Z,1004.62
2017-11-11T02:09:09.796Z,1004.55
2017-11-11T02:10:09.776Z,1004.57
2017-11-11T02:11:09.756Z,1004.52
2017-11-11T02:12:09.736Z,1004.54
2017-11-11T02:13:09.714Z,1004.54
2017-11-11T02:14:09.697Z,1004.52
2017-11-11T02:15:09.674Z,1004.54
2017-11-11T02:16:09.652Z,1004.50
2017-11-11T02:17:09.632Z,1004.44
2017-11-11T02:18:09.610Z,1004.46
2017-11-11T02:19:09.607Z,1004.47
2017-11-11T02:20:09.571Z,1004.46
2017-11-11T02:21:09.550Z,1004.43
2017-11-11T02:22:09.533Z,1004.37
2017-11-11T02:23:09.505Z,1004.43
2017-11-11T02:24:09.497Z,1004.44
2017-11-11T02:25:09.474Z,1004.43
2017-11-11T02:26:09.453Z,1004.43
2017-11-11T02:27:09.429Z,1004.49
2017-11-11T02:28:09.418Z,1004.43
2017-11-11T02:29:09.400Z,1004.46
2017-11-11T02:30:09.374Z,1004.41
2017-11-11T02:31:09.348Z,1004.41
2017-11-11T02:32:09.326Z,1004.39
2017-11-11T02:33:09.311Z,1004.42
2017-11-11T02:34:09.287Z,1004.39
2017-11-11T02:35:09.268Z,1004.41
2017-11-11T02:36:09.239Z,1004.34
2017-11-11T02:37:09.228Z,1004.38
2017-11-11T02:38:09.217Z,1004.35
2017-11-11T02:39:09.188Z,1004.39
2017-11-11T02:40:09.165Z,1004.33
2017-11-11T02:41:09.146Z,1004.36
2017-11-11T02:42:09.142Z,1004.38
2017-11-11T02:43:09.104Z,1004.47
2017-11-11T02:44:09.084Z,1004.48
2017-11-11T02:45:09.064Z,1004.42
2017-11-11T02:46:09.042Z,1004.58
2017-11-11T02:47:09.024Z,1004.75
2017-11-11T02:48:09.001Z,1004.64
2017-11-11T02:49:08.988Z,1004.65
2017-11-11T02:50:08.964Z,1004.43
2017-11-11T02:51:08.946Z,1004.53
2017-11-11T02:52:08.919Z,1004.58
2017-11-11T02:53:08.909Z,1004.52
2017-11-11T02:54:08.884Z,1004.57
2017-11-11T02:55:08.860Z,1004.34
2017-11-11T02:56:08.845Z,1004.40
2017-11-11T02:57:08.835Z,1004.40
2017-11-11T02:58:08.803Z,1004.36
2017-11-11T02:59:08.780Z,1004.35
2017-11-11T03:00:08.761Z,1004.37
2017-11-11T03:01:08.744Z,1004.28
2017-11-11T03:02:08.721Z,1004.33
2017-11-11T03:03:08.700Z,1004.22
2017-11-11T03:04:08.671Z,1004.23
2017-11-11T03:05:08.659Z,1004.16
2017-11-11T03:06:08.641Z,1004.12
2017-11-11T03:07:08.617Z,1004.31
2017-11-11T03:08:08.599Z,1004.25
2017-11-11T03:09:08.580Z,1004.24
2017-11-11T03:10:08.558Z,1004.22
2017-11-11T03:11:08.538Z,1004.16
2017-11-11T03:12:08.516Z,1004.22
2017-11-11T03:13:08.508Z,1004.15
2017-11-11T03:14:08.469Z,1004.17
2017-11-11T03:15:08.458Z,1004.09
2017-11-11T03:16:08.434Z,1004.12
2017-11-11T03:17:08.445Z,1004.15
2017-11-11T03:18:08.397Z,1004.08
2017-11-11T03:19:08.374Z,1004.18
2017-11-11T03:20:08.368Z,1004.15
2017-11-11T03:21:08.328Z,1004.14
2017-11-11T03:22:08.314Z,1004.11
2017-11-11T03:23:08.295Z,1004.06
2017-11-11T03:24:08.281Z,1004.06
2017-11-11T03:25:08.261Z,1004.07
2017-11-11T03:26:08.232Z,1004.09
2017-11-11T03:27:08.216Z,1004.03
2017-11-11T03:28:08.188Z,1004.04
2017-11-11T03:29:08.179Z,1004.04
2017-11-11T03:30:08.156Z,1004.03
2017-11-11T03:31:08.132Z,1004.01
2017-11-11T03:32:08.115Z,1003.99
2017-11-11T03:33:08.089Z,1003.95
2017-11-11T03:34:08.071Z,1003.93
2017-11-11T03:35:08.047Z,1003.84
2017-11-11T03:36:08.028Z,1003.81
2017-11-11T03:37:08.007Z,1003.86
2017-11-11T03:38:07.986Z,1003.87
2017-11-11T03:39:07.969Z,1003.88
2017-11-11T03:40:07.947Z,1003.88
2017-11-11T03:41:07.922Z,1003.91
2017-11-11T03:42:07.923Z,1003.82
2017-11-11T03:43:07.885Z,1003.77
2017-11-11T03:44:07.869Z,1003.74
2017-11-11T03:45:07.843Z,1003.68
2017-11-11T03:46:07.825Z,1003.68
2017-11-11T03:47:07.803Z,1003.66
2017-11-11T03:48:07.784Z,1003.71
2017-11-11T03:49:07.756Z,1003.68
2017-11-11T03:50:07.738Z,1003.63
2017-11-11T03:51:07.720Z,1003.66
2017-11-11T03:52:07.699Z,1003.63
2017-11-11T03:53:07.679Z,1003.62
2017-11-11T03:54:07.658Z,1003.61
2017-11-11T03:55:07.646Z,1003.60
2017-11-11T03:56:07.617Z,1003.59
2017-11-11T03:57:07.597Z,1003.60
2017-11-11T03:58:07.585Z,1003.61
2017-11-11T03:59:07.557Z,1003.61
2017-11-11T04:00:07.536Z,1003.60
2017-11-11T04:01:07.516Z,1003.63
2017-11-11T04:02:07.487Z,1003.63
2017-11-11T04:03:07.481Z,1003.63
2017-11-11T04:04:07.453Z,1003.61
2017-11-11T04:05:07.432Z,1003.58
2017-11-11T04:06:07.411Z,1003.54
2017-11-11T04:07:07.391Z,1003.53
2017-11-11T04:08:07.369Z,1003.56
2017-11-11T04:09:07.347Z,1003.56
2017-11-11T04:10:07.332Z,1003.60
2017-11-11T04:11:07.310Z,1003.55
2017-11-11T04:12:07.292Z,1003.54
2017-11-11T04:13:07.258Z,1003.55
2017-11-11T04:14:07.247Z,1003.54
2017-11-11T04:15:07.227Z,1003.49
2017-11-11T04:16:07.206Z,1003.56
2017-11-11T04:17:07.185Z,1003.52
2017-11-11T04:18:07.181Z,1003.44
2017-11-11T04:19:07.147Z,1003.48
2017-11-11T04:20:07.125Z,1003.58
2017-11-11T04:21:07.101Z,1003.48
2017-11-11T04:22:07.082Z,1003.47
2017-11-11T04:23:07.062Z,1003.49
2017-11-11T04:24:07.040Z,1003.47
2017-11-11T04:25:07.019Z,1003.48
2017-11-11T04:26:06.994Z,1003.42
2017-11-11T04:27:06.980Z,1003.43
2017-11-11T04:28:06.976Z,1003.41
2017-11-11T04:29:06.936Z,1003.42
2017-11-11T04:30:06.917Z,1003.39
2017-11-11T04:31:06.894Z,1003.46
2017-11-11T04:32:06.868Z,1003.43
2017-11-11T04:33:06.854Z,1003.45
2017-11-11T04:34:06.837Z,1003.45
2017-11-11T04:35:06.814Z,1003.37
2017-11-11T04:36:06.790Z,1003.43
2017-11-11T04:37:06.772Z,1003.45
2017-11-11T04:38:06.753Z,1003.44
2017-11-11T04:39:06.731Z,1003.42
2017-11-11T04:40:06.709Z,1003.42
2017-11-11T04:41:06.690Z,1003.42
2017-11-11T04:42:06.672Z,1003.43
2017-11-11T04:43:06.646Z,1003.43
2017-11-11T04:44:06.625Z,1003.46
2017-11-11T04:45:06.612Z,1003.48
2017-11-11T04:46:06.585Z,1003.50
2017-11-11T04:47:06.565Z,1003.50
2017-11-11T04:48:06.544Z,1003.35
2017-11-11T04:49:06.518Z,1003.43
2017-11-11T04:50:06.509Z,1003.42
2017-11-11T04:51:06.498Z,1003.39
2017-11-11T04:52:06.473Z,1003.39
2017-11-11T04:53:06.439Z,1003.44
2017-11-11T04:54:06.427Z,1003.49
2017-11-11T04:55:06.413Z,1003.30
2017-11-11T04:56:06.388Z,1003.33
2017-11-11T04:57:06.362Z,1003.26
2017-11-11T04:58:06.342Z,1003.23
2017-11-11T04:59:06.323Z,1003.18
2017-11-11T05:00:06.304Z,1003.21
2017-11-11T05:01:06.287Z,1003.25
2017-11-11T05:02:06.263Z,1003.18
2017-11-11T05:03:06.247Z,1003.11
2017-11-11T05:04:06.217Z,1003.08
2017-11-11T05:05:06.211Z,1002.93
2017-11-11T05:06:06.206Z,1003.06
2017-11-11T05:07:06.172Z,1003.12
2017-11-11T05:08:06.160Z,1003.16
2017-11-11T05:09:06.136Z,1003.19
2017-11-11T05:10:06.180Z,1003.14
2017-11-11T05:11:06.136Z,1003.11
2017-11-11T05:12:06.075Z,1003.00
2017-11-11T05:13:06.050Z,1003.04
2017-11-11T05:14:06.068Z,1003.05
2017-11-11T05:15:06.043Z,1003.03
2017-11-11T05:16:05.993Z,1003.02
2017-11-11T05:17:05.992Z,1002.97
2017-11-11T05:18:05.971Z,1003.04
2017-11-11T05:19:05.970Z,1003.00
2017-11-11T05:20:05.928Z,1003.01
2017-11-11T05:21:05.909Z,1003.07
2017-11-11T05:22:05.880Z,1003.05
2017-11-11T05:23:05.839Z,1003.11
2017-11-11T05:24:05.834Z,1003.03
2017-11-11T05:25:05.804Z,1003.07
2017-11-11T05:26:05.802Z,1003.03
2017-11-11T05:27:05.771Z,1003.10
2017-11-11T05:28:05.769Z,1003.04
2017-11-11T05:29:05.731Z,1003.04
2017-11-11T05:30:05.756Z,1003.04
2017-11-11T05:31:05.687Z,1003.03
2017-11-11T05:32:05.675Z,1003.00
2017-11-11T05:33:05.654Z,1002.98
2017-11-11T05:34:05.610Z,1002.96
2017-11-11T05:35:05.601Z,1002.95
2017-11-11T05:36:05.602Z,1002.88
2017-11-11T05:37:05.550Z,1002.84
2017-11-11T05:38:05.528Z,1002.82
2017-11-11T05:39:05.512Z,1002.82
2017-11-11T05:40:05.512Z,1002.78
2017-11-11T05:41:05.473Z,1002.82
2017-11-11T05:42:05.446Z,1002.81
2017-11-11T05:43:05.437Z,1002.82
2017-11-11T05:44:05.426Z,1002.79
2017-11-11T05:45:05.392Z,1002.76
2017-11-11T05:46:05.364Z,1002.73
2017-11-11T05:47:05.361Z,1002.73
2017-11-11T05:48:05.350Z,1002.65
2017-11-11T05:49:05.316Z,1002.67
2017-11-11T05:50:05.283Z,1002.62
2017-11-11T05:51:05.285Z,1002.63
2017-11-11T05:52:05.247Z,1002.56
2017-11-11T05:53:05.222Z,1002.59
2017-11-11T05:54:05.206Z,1002.59
2017-11-11T05:55:05.193Z,1002.52
2017-11-11T05:56:05.177Z,1002.55
2017-11-11T05:57:05.156Z,1002.57
2017-11-11T05:58:05.127Z,1002.60
2017-11-11T05:59:05.099Z,1002.60
2017-11-11T06:00:05.144Z,1002.53
2017-11-11T06:01:05.060Z,1002.57
2017-11-11T06:02:05.059Z,1002.55
2017-11-11T06:03:05.023Z,1002.58
2017-11-11T06:04:05.045Z,1002.58
2017-11-11T06:05:04.977Z,1002.58
2017-11-11T06:06:04.957Z,1002.55
2017-11-11T06:07:04.940Z,1002.55
2017-11-11T06:08:04.929Z,1002.52
2017-11-11T06:09:04.892Z,1002.51
2017-11-11T06:10:04.883Z,1002.55
2017-11-11T06:11:04.910Z,1002.51
2017-11-11T06:12:04.836Z,1002.52
2017-11-11T06:13:04.813Z,1002.57
2017-11-11T06:14:04.804Z,1002.58
2017-11-11T06:15:04.795Z,1002.57
2017-11-11T06:16:04.764Z,1002.49
2017-11-11T06:17:04.744Z,1002.58
2017-11-11T06:18:04.734Z,1002.60
2017-11-11T06:19:04.707Z,1002.57
2017-11-11T06:20:04.668Z,1002.49
2017-11-11T06:21:04.649Z,1002.46
2017-11-11T06:22:04.632Z,1002.51
2017-11-11T06:23:04.659Z,1002.48
2017-11-11T06:24:04.594Z,1002.48
2017-11-11T06:25:04.603Z,1002.49
2017-11-11T06:26:04.550Z,1002.44
2017-11-11T06:27:04.529Z,1002.43
2017-11-11T06:28:04.520Z,1002.42
2017-11-11T06:29:04.493Z,1002.46
2017-11-11T06:30:04.471Z,1002.40
2017-11-11T06:31:04.454Z,1002.44
2017-11-11T06:32:04.421Z,1002.41
2017-11-11T06:33:04.428Z,1002.42
2017-11-11T06:34:04.389Z,1002.44
2017-11-11T06:35:04.370Z,1002.34
2017-11-11T06:36:04.442Z,1002.37
2017-11-11T06:37:04.352Z,1002.36
2017-11-11T06:38:04.307Z,1002.34
2017-11-11T06:39:04.289Z,1002.27
2017-11-11T06:40:04.279Z,1002.34
2017-11-11T06:41:04.273Z,1002.36
2017-11-11T06:42:04.238Z,1002.31
2017-11-11T06:43:04.209Z,1002.35
2017-11-11T06:44:04.178Z,1002.29
2017-11-11T06:45:04.181Z,1002.27
2017-11-11T06:46:04.141Z,1002.25
2017-11-11T06:47:04.149Z,1002.20
2017-11-11T06:48:04.139Z,1002.13
2017-11-11T06:49:04.087Z,1002.17
2017-11-11T06:50:04.093Z,1002.19
2017-11-11T06:51:04.047Z,1002.16
2017-11-11T06:52:04.020Z,1002.12
2017-11-11T06:53:04.006Z,1002.11
2017-11-11T06:54:03.998Z,1002.15
2017-11-11T06:55:03.979Z,1002.15
2017-11-11T06:56:03.946Z,1002.08
2017-11-11T06:57:03.938Z,1002.10
2017-11-11T06:58:03.904Z,1002.10
2017-11-11T06:59:03.891Z,1002.09
2017-11-11T07:00:03.890Z,1002.11
2017-11-11T07:01:03.837Z,1002.10
2017-11-11T07:02:03.839Z,1002.12
2017-11-11T07:03:03.833Z,1002.14
2017-11-11T07:04:03.824Z,1002.15
2017-11-11T07:05:03.755Z,1002.15
2017-11-11T07:06:03.748Z,1002.12
2017-11-11T07:07:03.727Z,1002.13
2017-11-11T07:08:03.694Z,1002.14
2017-11-11T07:09:03.701Z,1002.14
2017-11-11T07:10:03.662Z,1002.13
2017-11-11T07:11:03.641Z,1002.11
2017-11-11T07:12:03.602Z,1002.17
2017-11-11T07:13:03.593Z,1002.15
2017-11-11T07:14:03.598Z,1002.13
2017-11-11T07:15:03.555Z,1002.14
2017-11-11T07:16:03.526Z,1002.16
2017-11-11T07:17:03.513Z,1002.17
2017-11-11T07:18:03.511Z,1002.17
2017-11-11T07:19:03.514Z,1002.15
2017-11-11T07:20:03.449Z,1002.16
2017-11-11T07:21:03.454Z,1002.15
2017-11-11T07:22:03.431Z,1002.16
2017-11-11T07:23:03.415Z,1002.16
2017-11-11T07:24:03.399Z,1002.15
2017-11-11T07:25:03.373Z,1002.12
2017-11-11T07:26:03.340Z,1002.11
2017-11-11T07:27:03.348Z,1002.07
2017-11-11T07:28:03.296Z,1002.08
2017-11-11T07:29:03.277Z,1002.09
2017-11-11T07:30:03.256Z,1002.07
2017-11-11T07:31:03.228Z,1002.12
2017-11-11T07:32:03.222Z,1002.07
2017-11-11T07:33:03.203Z,1002.07
2017-11-11T07:34:03.177Z,1002.04
2017-11-11T07:35:03.170Z,1002.04
2017-11-11T07:36:03.134Z,1002.07
2017-11-11T07:37:03.117Z,1002.07
2017-11-11T07:38:03.099Z,1001.99
2017-11-11T07:39:03.084Z,1002.03
2017-11-11T07:40:03.074Z,1002.03
2017-11-11T07:41:03.032Z,1002.03
2017-11-11T07:42:03.020Z,1002.01
2017-11-11T07:43:03.008Z,1002.02
2017-11-11T07:44:02.990Z,1001.93
2017-11-11T07:46:02.937Z,1001.98
2017-11-11T07:47:02.982Z,1001.96
2017-11-11T07:48:02.907Z,1001.99
2017-11-11T07:49:02.893Z,1001.92
2017-11-11T07:50:02.894Z,1001.88
2017-11-11T07:51:02.845Z,1001.99
2017-11-11T07:52:02.822Z,1001.96
2017-11-11T07:53:02.797Z,1001.97
2017-11-11T07:54:02.775Z,1001.99
2017-11-11T07:55:02.766Z,1001.97
2017-11-11T07:56:02.766Z,1001.97
2017-11-11T07:57:02.710Z,1001.91
2017-11-11T07:58:02.708Z,1001.95
2017-11-11T07:59:02.680Z,1001.84
2017-11-11T08:00:02.668Z,1001.85
2017-11-11T08:01:02.646Z,1001.89
2017-11-11T08:02:02.613Z,1001.83
2017-11-11T08:03:02.593Z,1001.79
2017-11-11T08:04:02.582Z,1001.84
2017-11-11T08:05:02.553Z,1001.82
2017-11-11T08:06:02.569Z,1001.80
2017-11-11T08:07:02.519Z,1001.80
2017-11-11T08:08:02.495Z,1001.82
2017-11-11T08:09:02.487Z,1001.79
2017-11-11T08:10:02.469Z,1001.80
2017-11-11T08:11:02.453Z,1001.76
2017-11-11T08:12:02.438Z,1001.75
2017-11-11T08:13:02.400Z,1001.75
2017-11-11T08:15:02.360Z,1001.73
2017-11-11T08:16:02.339Z,1001.77
2017-11-11T08:17:02.341Z,1001.72
2017-11-11T08:18:02.320Z,1001.74
2017-11-11T08:19:02.320Z,1001.79
2017-11-11T08:20:02.268Z,1001.77
2017-11-11T08:21:02.301Z,1001.83
2017-11-11T08:22:02.223Z,1001.82
2017-11-11T08:23:02.211Z,1001.75
2017-11-11T08:24:02.190Z,1001.77
2017-11-11T08:25:02.176Z,1001.75
2017-11-11T08:26:02.176Z,1001.76
2017-11-11T08:27:02.126Z,1001.71
2017-11-11T08:28:02.110Z,1001.73
2017-11-11T08:29:02.099Z,1001.76
2017-11-11T08:30:02.097Z,1001.70
2017-11-11T08:31:02.048Z,1001.71
2017-11-11T08:32:02.030Z,1001.71
2017-11-11T08:33:02.017Z,1001.64
2017-11-11T08:34:02.021Z,1001.66
2017-11-11T08:35:01.974Z,1001.66
2017-11-11T08:36:01.992Z,1001.70
2017-11-11T08:37:01.930Z,1001.66
2017-11-11T08:38:01.925Z,1001.68
2017-11-11T08:39:01.897Z,1001.62
2017-11-11T08:40:01.909Z,1001.59
2017-11-11T08:41:01.856Z,1001.57
2017-11-11T08:42:01.835Z,1001.59
2017-11-11T08:43:01.817Z,1001.58
2017-11-11T08:44:01.797Z,1001.58
2017-11-11T08:45:01.789Z,1001.55
2017-11-11T08:46:01.755Z,1001.54
2017-11-11T08:47:01.736Z,1001.55
2017-11-11T08:48:01.744Z,1001.52
2017-11-11T08:49:01.724Z,1001.53
2017-11-11T08:50:01.685Z,1001.48
2017-11-11T08:51:01.693Z,1001.46
2017-11-11T08:52:01.643Z,1001.52
2017-11-11T08:53:01.626Z,1001.48
2017-11-11T08:54:01.606Z,1001.45
2017-11-11T08:55:01.588Z,1001.50
2017-11-11T08:56:01.577Z,1001.48
2017-11-11T08:57:01.551Z,1001.45
2017-11-11T08:58:01.530Z,1001.44
2017-11-11T08:59:01.516Z,1001.46
2017-11-11T09:00:01.501Z,1001.35
2017-11-11T09:01:01.478Z,1001.33
2017-11-11T09:02:01.462Z,1001.45
2017-11-11T09:03:01.441Z,1001.43
2017-11-11T09:04:01.435Z,1001.39
2017-11-11T09:05:01.397Z,1001.37
2017-11-11T09:06:01.401Z,1001.41
2017-11-11T09:07:01.357Z,1001.43
2017-11-11T09:08:01.370Z,1001.38
2017-11-11T09:09:01.334Z,1001.39
2017-11-11T09:10:01.317Z,1001.37
2017-11-11T09:11:01.290Z,1001.40
2017-11-11T09:12:01.264Z,1001.44
2017-11-11T09:13:01.244Z,1001.43
2017-11-11T09:14:01.242Z,1001.47
2017-11-11T09:15:01.201Z,1001.45
2017-11-11T09:16:01.182Z,1001.49
2017-11-11T09:17:01.166Z,1001.46
2017-11-11T09:18:01.157Z,1001.42
2017-11-11T09:19:01.143Z,1001.46
2017-11-11T09:20:01.112Z,1001.46
2017-11-11T09:21:01.096Z,1001.38
2017-11-11T09:22:01.093Z,1001.38
2017-11-11T09:23:01.062Z,1001.33
2017-11-11T09:24:01.032Z,1001.42
2017-11-11T09:25:01.018Z,1001.39
2017-11-11T09:26:01.022Z,1001.39
2017-11-11T09:27:00.976Z,1001.37
2017-11-11T09:28:01.028Z,1001.40
2017-11-11T09:29:00.947Z,1001.37
2017-11-11T09:30:00.922Z,1001.31
2017-11-11T09:31:00.924Z,1001.38
2017-11-11T09:32:00.877Z,1001.33
2017-11-11T09:33:00.863Z,1001.34
2017-11-11T09:34:00.890Z,1001.36
2017-11-11T09:35:00.846Z,1001.38
2017-11-11T09:36:00.804Z,1001.33
2017-11-11T09:37:00.788Z,1001.41
2017-11-11T09:38:00.777Z,1001.38
2017-11-11T09:39:00.759Z,1001.36
2017-11-11T09:40:00.720Z,1001.34
2017-11-11T09:41:00.738Z,1001.34
2017-11-11T09:42:00.703Z,1001.29
2017-11-11T09:43:00.672Z,1001.31
2017-11-11T09:44:00.666Z,1001.34
2017-11-11T09:45:00.660Z,1001.29
2017-11-11T09:46:00.643Z,1001.27
2017-11-11T09:47:00.593Z,1001.21
2017-11-11T09:48:00.573Z,1001.28
2017-11-11T09:49:00.568Z,1001.23
2017-11-11T09:50:00.575Z,1001.27
2017-11-11T09:51:00.514Z,1001.24
2017-11-11T09:52:00.505Z,1001.21
2017-11-11T09:53:00.699Z,1001.19
2017-11-11T09:54:00.475Z,1001.23
2017-11-11T09:55:00.460Z,1001.10
2017-11-11T09:56:00.435Z,1001.17
2017-11-11T09:57:00.420Z,1001.09
2017-11-11T09:58:00.422Z,1001.11
2017-11-11T09:59:00.443Z,1001.10
2017-11-11T10:00:00.369Z,1001.13
2017-11-11T10:01:00.339Z,1001.07
2017-11-11T10:02:00.348Z,1001.07
2017-11-11T10:03:00.320Z,1001.04
2017-11-11T10:04:00.279Z,1001.06
2017-11-11T10:05:00.259Z,1001.02
2017-11-11T10:06:00.261Z,1001.07
2017-11-11T10:07:00.219Z,1001.04
2017-11-11T10:08:00.198Z,1001.02
2017-11-11T10:09:00.177Z,1001.02
2017-11-11T10:10:00.182Z,1001.01
2017-11-11T10:11:00.148Z,1001.00
2017-11-11T10:12:00.164Z,1000.95
2017-11-11T10:13:00.113Z,1000.98
2017-11-11T10:14:00.082Z,1001.00
2017-11-11T10:15:00.064Z,1000.97
2017-11-11T10:16:00.051Z,1000.94
2017-11-11T10:17:00.041Z,1000.93
2017-11-11T10:18:00.018Z,1000.90
2017-11-11T10:18:59.987Z,1000.86
2017-11-11T10:19:59.994Z,1000.88
2017-11-11T10:20:59.958Z,1000.80
2017-11-11T10:21:59.945Z,1000.82
2017-11-11T10:22:59.959Z,1000.82
2017-11-11T10:23:59.907Z,1000.82
2017-11-11T10:24:59.890Z,1000.86
2017-11-11T10:25:59.876Z,1000.85
2017-11-11T10:26:59.860Z,1000.85
2017-11-11T10:27:59.838Z,1000.79
2017-11-11T10:28:59.801Z,1000.79
2017-11-11T10:29:59.783Z,1000.82
2017-11-11T10:30:59.771Z,1000.77
2017-11-11T10:31:59.749Z,1000.80
2017-11-11T10:32:59.729Z,1000.79
2017-11-11T10:33:59.717Z,1000.72
2017-11-11T10:34:59.707Z,1000.72
2017-11-11T10:35:59.666Z,1000.66
2017-11-11T10:36:59.644Z,1000.73
2017-11-11T10:37:59.625Z,1000.67
2017-11-11T10:38:59.612Z,1000.64
2017-11-11T10:39:59.610Z,1000.57
2017-11-11T10:40:59.584Z,1000.61
2017-11-11T10:41:59.557Z,1000.60
2017-11-11T10:42:59.533Z,1000.55
2017-11-11T10:43:59.527Z,1000.56
2017-11-11T10:44:59.498Z,1000.57
2017-11-11T10:45:59.475Z,1000.51
2017-11-11T10:46:59.458Z,1000.52
2017-11-11T10:47:59.445Z,1000.52
2017-11-11T10:48:59.439Z,1000.53
2017-11-11T10:49:59.420Z,1000.53
2017-11-11T10:50:59.398Z,1000.44
2017-11-11T10:51:59.367Z,1000.48
2017-11-11T10:52:59.358Z,1000.43
2017-11-11T10:53:59.342Z,1000.46
2017-11-11T10:54:59.333Z,1000.44
2017-11-11T10:55:59.330Z,1000.39
2017-11-11T10:56:59.287Z,1000.38
2017-11-11T10:57:59.264Z,1000.41
2017-11-11T10:58:59.290Z,1000.38
2017-11-11T10:59:59.228Z,1000.36
2017-11-11T11:00:59.236Z,1000.33
2017-11-11T11:01:59.505Z,1000.30
2017-11-11T11:02:59.201Z,1000.29
2017-11-11T11:03:59.160Z,1000.27
2017-11-11T11:04:59.135Z,1000.27
2017-11-11T11:05:59.109Z,1000.20
2017-11-11T11:06:59.094Z,1000.16
2017-11-11T11:07:59.826Z,1000.20
2017-11-11T11:08:59.046Z,1000.15
2017-11-11T11:09:59.026Z,1000.16
2017-11-11T11:10:59.015Z,1000.15
2017-11-11T11:11:58.996Z,1000.16
2017-11-11T11:12:58.980Z,1000.13
2017-11-11T11:13:58.989Z,1000.16
2017-11-11T11:14:58.951Z,1000.12
2017-11-11T11:15:58.913Z,1000.11
2017-11-11T11:16:58.904Z,1000.10
2017-11-11T11:17:58.873Z,1000.08
2017-11-11T11:18:58.881Z,1000.11
2017-11-11T11:19:58.837Z,1000.07
2017-11-11T11:20:58.841Z,1000.07
2017-11-11T11:21:58.863Z,1000.08
2017-11-11T11:22:58.842Z,999.98
2017-11-11T11:23:58.773Z,1000.02
2017-11-11T11:24:58.767Z,1000.03
2017-11-11T11:25:58.769Z,1000.06
2017-11-11T11:26:58.731Z,999.99
2017-11-11T11:27:58.711Z,999.95
2017-11-11T11:28:58.679Z,1000.01
2017-11-11T11:29:58.660Z,999.95
2017-11-11T11:30:58.718Z,999.96
2017-11-11T11:31:58.622Z,999.92
2017-11-11T11:32:58.600Z,999.92
2017-11-11T11:33:58.616Z,999.89
2017-11-11T11:34:58.567Z,999.90
2017-11-11T11:35:58.566Z,999.87
2017-11-11T11:36:58.532Z,999.88
2017-11-11T11:37:58.634Z,999.90
2017-11-11T11:38:58.590Z,999.91
2017-11-11T11:39:58.539Z,999.91
2017-11-11T11:40:58.532Z,999.93
2017-11-11T11:41:58.449Z,999.94
2017-11-11T11:42:58.473Z,999.93
2017-11-11T11:43:58.441Z,999.95
2017-11-11T11:44:58.417Z,999.96
2017-11-11T11:45:58.381Z,999.95
2017-11-11T11:46:58.374Z,999.99
2017-11-11T11:47:58.499Z,999.96
2017-11-11T11:48:58.327Z,999.96
2017-11-11T11:49:58.385Z,999.93
2017-11-11T11:50:58.294Z,999.92
2017-11-11T11:51:58.304Z,999.89
2017-11-11T11:52:58.291Z,999.87
2017-11-11T11:53:58.276Z,999.87
2017-11-11T11:54:58.227Z,999.87
2017-11-11T11:55:58.236Z,999.85
2017-11-11T11:56:58.226Z,999.85
2017-11-11T11:57:58.212Z,999.83
2017-11-11T11:58:58.158Z,999.86
2017-11-11T11:59:58.120Z,999.83
2017-11-11T12:00:58.120Z,999.85
2017-11-11T12:01:58.078Z,999.89
2017-11-11T12:02:58.097Z,999.81
2017-11-11T12:03:58.046Z,999.84
2017-11-11T12:04:58.049Z,999.84
2017-11-11T12:05:58.078Z,999.79
2017-11-11T12:06:58.006Z,999.81
2017-11-11T12:07:57.984Z,999.79
2017-11-11T12:08:57.977Z,999.73